CheckWX is a tool to help pilots better visualize weather data.  It is not intended as a substitute for an official pre-flight weather briefing.

09:47:11 UTC

KEVW METAR
Evanston-Uinta County Burns Field Airport
Evanston, Wyoming, USA
Current

54 mins ago

KEVW 230853Z AUTO 07012KT 10SM CLR 18/03 A3038 RMK AO2 SLP172 T01780033 53004
Observed
Jul-23 @ 08:53 UTC
Wind
  • 070° at 12 KTS
Visibility
10 SM
Flight Rules
VFR
Cloud Levels
  • Clear skies
Temperature
18°C / 64°F
Dewpoint
C / 37°F
Humidity
37%
Altimeter
30.38" Hg
Pressure
1028.82 hPa
Previous

2 hours ago

KEVW 230753Z AUTO 06007KT 10SM CLR 18/03 A3037 RMK AO2 SLP172 T01830028
Observed
Jul-23 @ 07:53 UTC
Wind
  • 060° at 7 KTS
Visibility
10 SM
Flight Rules
VFR
Cloud Levels
  • Clear skies
Temperature
18°C / 64°F
Dewpoint
C / 37°F
Humidity
37%
Altimeter
30.37" Hg
Pressure
1028.42 hPa
Previous

3 hours ago

KEVW 230653Z AUTO 10009KT 10SM CLR 19/02 A3036 RMK AO2 SLP168 T01940022 403220139
Observed
Jul-23 @ 06:53 UTC
Wind
  • 100° at 9 KTS
Visibility
10 SM
Flight Rules
VFR
Cloud Levels
  • Clear skies
Temperature
19°C / 66°F
Dewpoint
C / 36°F
Humidity
32%
Altimeter
30.36" Hg
Pressure
1028.12 hPa